Andres Sabella Galvez International Airport

Airport
ICAO code: 
SCFA
IATA Code: 
ANF
Summary
ICAO Region: 
CARSAM
Territory: 
Location: 
La Chimba, Antofagasta
Serving: 
Antofagasta
Elevation: 
455 ft
Coordinates: 
Aerial View: 
23° 26' 40.121" S, 70° 26' 42.36" W
Metar
Observation
SCFA 050800Z 04003KT 9999 OVC018 16/12 Q1013 NOSIG
Station
Antofagasta
Date/Time
2021-12-05 08:00:00
Wind direction
40°
Wind speed
03 kts
Lowest cloud amount
overcast
Temperature
16°C
Dew point
12°C
Humidity
77%
QNH
1013 hPa
Weather condition
n/a

International airport 6.2 nm north of Antofagasta, Chile.

Climatology

Mild desert climate (Köppen climate classification BWh)

Runways

Designator Length Width Surface Rops
1/19 2599 50 ASP No/No
Airport map: 
Aerial View: 

SKYbrary Partners:

Safety knowledge contributed by: